Weather at Blair Drummond Private Airstrip

Public forecast

Using degrees Celsius for public forecast. Weather courtesy of forecast.io.

Closest aviation weather report (METAR) to Blair Drummond Private Airstrip

Closest report is Glasgow International Airport, 21.2 nm (39.3 km) SW.

2024/05/30 19:20 (retrieved 35 minutes ago)

EGPF 301920Z AUTO 29008KT 9999 NCD 15/10 Q1018

Closest aviation forecast (TAF) to Blair Drummond Private Airstrip

Closest forecast is Glasgow International Airport, 21.2 nm (39.3 km) SW.

2024/05/30 18:00 (retrieved 2 hours ago)

TAF EGPF 301657Z 3018/3118 31008KT 9999 FEW035 PROB30 3100/3106 8000